createdAt,value
2019-04-29T00:00:10.826Z,51.50
2019-04-29T00:02:39.296Z,51.50
2019-04-29T00:05:08.799Z,49.57
2019-04-29T00:07:37.439Z,49.37
2019-04-29T00:10:07.379Z,51.07
2019-04-29T00:12:35.855Z,50.90
2019-04-29T00:15:07.963Z,50.03
2019-04-29T00:17:43.471Z,55.07
2019-04-29T00:20:16.393Z,51.33
2019-04-29T00:22:44.803Z,50.83
2019-04-29T00:25:13.367Z,57.37
2019-04-29T00:27:42.155Z,58.07
2019-04-29T00:30:12.315Z,58.13
2019-04-29T00:32:40.693Z,53.30
2019-04-29T00:35:09.200Z,54.90
2019-04-29T00:37:39.240Z,50.30
2019-04-29T00:40:26.023Z,50.67
2019-04-29T00:42:56.077Z,51.57
2019-04-29T00:45:25.174Z,53.20
2019-04-29T00:47:53.578Z,54.73
2019-04-29T00:50:22.013Z,55.77
2019-04-29T00:52:50.493Z,53.77
2019-04-29T00:55:23.539Z,54.20
2019-04-29T00:57:51.942Z,52.23
2019-04-29T01:00:28.274Z,53.93
2019-04-29T01:02:56.684Z,52.30
2019-04-29T01:05:25.257Z,55.10
2019-04-29T01:07:53.662Z,60.93
2019-04-29T01:10:22.094Z,58.47
2019-04-29T01:12:50.573Z,60.70
2019-04-29T01:15:19.003Z,64.67
2019-04-29T01:17:47.411Z,59.00
2019-04-29T01:20:16.027Z,63.50
2019-04-29T01:22:44.501Z,57.97
2019-04-29T01:25:13.076Z,64.67
2019-04-29T01:27:48.741Z,58.40
2019-04-29T01:30:38.507Z,57.37
2019-04-29T01:33:06.986Z,56.10
2019-04-29T01:35:35.393Z,53.20
2019-04-29T01:38:03.823Z,54.87
2019-04-29T01:40:33.871Z,56.67
2019-04-29T01:43:02.303Z,62.50
2019-04-29T01:45:30.715Z,62.13
2019-04-29T01:47:59.140Z,57.40
2019-04-29T01:50:27.548Z,54.77
2019-04-29T01:52:55.981Z,58.07
2019-04-29T01:55:24.389Z,56.73
2019-04-29T01:57:52.815Z,56.00
2019-04-29T02:00:21.291Z,56.63
2019-04-29T02:02:49.723Z,56.20
2019-04-29T02:05:18.204Z,53.73
2019-04-29T02:07:46.634Z,59.80
2019-04-29T02:10:22.640Z,55.33
2019-04-29T02:12:51.072Z,55.00
2019-04-29T02:15:19.554Z,55.90
2019-04-29T02:17:47.983Z,50.90
2019-04-29T02:20:16.387Z,53.90
2019-04-29T02:22:49.458Z,58.33
2019-04-29T02:25:22.345Z,57.10
2019-04-29T02:27:50.782Z,55.60
2019-04-29T02:30:46.882Z,52.07
2019-04-29T02:33:15.378Z,55.10
2019-04-29T02:35:43.901Z,60.03
2019-04-29T02:38:14.062Z,51.70
2019-04-29T02:40:56.004Z,55.43
2019-04-29T02:43:26.075Z,57.53
2019-04-29T02:45:54.483Z,59.20
2019-04-29T02:48:22.914Z,55.93
2019-04-29T02:50:51.326Z,58.20
2019-04-29T02:53:19.717Z,55.10
2019-04-29T02:55:49.794Z,57.97
2019-04-29T02:58:19.853Z,57.40
2019-04-29T03:01:06.167Z,58.60
2019-04-29T03:03:39.069Z,62.20
2019-04-29T03:06:07.577Z,66.67
2019-04-29T03:08:35.981Z,67.23
2019-04-29T03:11:04.494Z,57.80
2019-04-29T03:13:32.896Z,63.23
2019-04-29T03:16:01.511Z,66.97
2019-04-29T03:18:31.701Z,69.03
2019-04-29T03:21:11.016Z,63.37
2019-04-29T03:23:39.417Z,58.70
2019-04-29T03:26:07.850Z,61.47
2019-04-29T03:28:36.254Z,61.17
2019-04-29T03:31:04.765Z,66.53
2019-04-29T03:33:33.163Z,69.57
2019-04-29T03:36:01.609Z,61.30
2019-04-29T03:38:30.014Z,61.83
2019-04-29T03:40:58.513Z,63.10
2019-04-29T03:43:26.995Z,60.30
2019-04-29T03:45:55.443Z,61.40
2019-04-29T03:48:23.932Z,64.70
2019-04-29T03:50:52.355Z,63.00
2019-04-29T03:53:20.762Z,61.00
2019-04-29T03:55:50.840Z,64.23
2019-04-29T03:58:19.247Z,62.00
2019-04-29T04:00:49.324Z,63.73
2019-04-29T04:03:22.336Z,62.43
2019-04-29T04:06:07.761Z,68.80
2019-04-29T04:08:37.806Z,67.93
2019-04-29T04:11:06.405Z,67.10
2019-04-29T04:13:34.798Z,65.57
2019-04-29T04:16:04.009Z,68.50
2019-04-29T04:18:34.052Z,63.70
2019-04-29T04:21:02.495Z,61.30
2019-04-29T04:23:30.906Z,63.63
2019-04-29T04:25:59.415Z,66.97
2019-04-29T04:28:27.828Z,62.03
2019-04-29T04:30:56.277Z,58.33
2019-04-29T04:33:24.673Z,57.80
2019-04-29T04:35:53.177Z,55.30
2019-04-29T04:38:21.584Z,56.87
2019-04-29T04:40:54.556Z,59.10
2019-04-29T04:43:22.963Z,58.53
2019-04-29T04:45:51.399Z,66.20
2019-04-29T04:48:19.804Z,59.50
2019-04-29T04:50:48.240Z,61.17
2019-04-29T04:53:16.648Z,60.97
2019-04-29T04:55:47.703Z,59.73
2019-04-29T04:58:16.115Z,57.40
2019-04-29T05:00:44.523Z,61.40
2019-04-29T05:03:12.963Z,65.80
2019-04-29T05:05:42.829Z,62.50
2019-04-29T05:08:11.350Z,65.63
2019-04-29T05:10:39.754Z,57.33
2019-04-29T05:13:08.194Z,71.60
2019-04-29T05:15:36.599Z,66.80
2019-04-29T05:18:05.112Z,70.57
2019-04-29T05:20:33.517Z,65.67
2019-04-29T05:23:01.964Z,72.20
2019-04-29T05:25:31.319Z,66.13
2019-04-29T05:27:59.886Z,60.77
2019-04-29T05:30:28.360Z,72.40
2019-04-29T05:32:56.866Z,67.37
2019-04-29T05:35:26.980Z,68.57
2019-04-29T05:37:59.564Z,67.03
2019-04-29T05:40:38.427Z,73.13
2019-04-29T05:43:09.927Z,68.13
2019-04-29T05:45:46.196Z,71.70
2019-04-29T05:48:17.459Z,69.90
2019-04-29T05:51:03.840Z,71.03
2019-04-29T05:53:42.537Z,67.10
2019-04-29T05:56:10.946Z,68.40
2019-04-29T05:58:39.651Z,63.30
2019-04-29T06:01:09.877Z,73.67
2019-04-29T06:03:39.759Z,67.60
2019-04-29T06:06:08.298Z,69.30
2019-04-29T06:08:39.107Z,70.30
2019-04-29T06:11:06.862Z,70.77
2019-04-29T06:13:35.300Z,72.53
2019-04-29T06:16:03.779Z,71.40
2019-04-29T06:18:32.190Z,77.43
2019-04-29T06:21:08.756Z,74.30
2019-04-29T06:23:30.751Z,72.23
2019-04-29T06:25:59.185Z,75.80
2019-04-29T06:28:28.182Z,74.80
2019-04-29T06:30:56.702Z,74.90
2019-04-29T06:33:28.993Z,71.70
2019-04-29T06:35:57.022Z,67.20
2019-04-29T06:38:25.475Z,71.43
2019-04-29T06:40:53.902Z,75.97
2019-04-29T06:43:24.471Z,77.90
2019-04-29T06:45:52.464Z,72.43
2019-04-29T06:48:20.869Z,66.80
2019-04-29T06:50:49.854Z,71.17
2019-04-29T06:53:21.531Z,67.20
2019-04-29T06:55:48.480Z,69.70
2019-04-29T06:58:16.871Z,82.17
2019-04-29T07:00:45.305Z,70.77
2019-04-29T07:03:13.715Z,69.03
2019-04-29T07:05:42.149Z,71.40
2019-04-29T07:08:10.564Z,70.10
2019-04-29T07:10:39.002Z,71.50
2019-04-29T07:13:07.409Z,69.87
2019-04-29T07:15:35.913Z,62.47
2019-04-29T07:18:04.763Z,70.50
2019-04-29T07:20:37.178Z,76.60
2019-04-29T07:23:03.332Z,70.63
2019-04-29T07:25:31.745Z,68.97
2019-04-29T07:28:00.177Z,73.67
2019-04-29T07:30:29.456Z,68.40
2019-04-29T07:32:58.102Z,78.33
2019-04-29T07:35:26.505Z,70.10
2019-04-29T07:37:54.950Z,74.23
2019-04-29T07:40:23.428Z,70.37
2019-04-29T07:42:51.864Z,74.00
2019-04-29T07:45:43.645Z,75.20
2019-04-29T07:48:05.776Z,72.60
2019-04-29T07:50:31.495Z,74.13
2019-04-29T07:52:59.934Z,69.03
2019-04-29T07:55:30.787Z,71.63
2019-04-29T07:57:58.504Z,75.23
2019-04-29T08:00:34.552Z,76.27
2019-04-29T08:03:04.526Z,75.50
2019-04-29T08:05:33.008Z,68.20
2019-04-29T08:08:01.612Z,76.13
2019-04-29T08:10:30.079Z,77.67
2019-04-29T08:12:59.661Z,70.50
2019-04-29T08:15:31.721Z,68.60
2019-04-29T08:18:06.395Z,75.70
2019-04-29T08:20:28.764Z,71.37
2019-04-29T08:22:58.433Z,63.60
2019-04-29T08:25:27.346Z,67.27
2019-04-29T08:27:55.793Z,64.20
2019-04-29T08:30:24.208Z,63.30
2019-04-29T08:32:52.648Z,65.77
2019-04-29T08:35:21.065Z,66.20
2019-04-29T08:37:49.522Z,63.47
2019-04-29T08:40:18.804Z,57.77
2019-04-29T08:42:54.583Z,54.30
2019-04-29T08:45:24.627Z,53.67
2019-04-29T08:47:53.903Z,51.10
2019-04-29T08:50:22.338Z,54.33
2019-04-29T08:52:50.753Z,54.40
2019-04-29T08:55:19.518Z,53.07
2019-04-29T08:57:47.979Z,54.57
2019-04-29T09:00:16.753Z,52.87
2019-04-29T09:02:47.351Z,55.00
2019-04-29T09:05:15.561Z,56.03
2019-04-29T09:07:44.037Z,50.07
2019-04-29T09:10:12.718Z,56.60
2019-04-29T09:12:41.204Z,51.60
2019-04-29T09:15:10.275Z,50.20
2019-04-29T09:17:38.684Z,51.90
2019-04-29T09:20:07.561Z,50.80
2019-04-29T09:22:37.608Z,53.73
2019-04-29T09:25:11.553Z,51.80
2019-04-29T09:27:45.010Z,50.27
2019-04-29T09:30:13.662Z,57.13
2019-04-29T09:32:42.069Z,49.57
2019-04-29T09:35:10.784Z,53.10
2019-04-29T09:37:39.195Z,47.30
2019-04-29T09:40:09.337Z,52.63
2019-04-29T09:42:45.520Z,48.90
2019-04-29T09:45:14.690Z,49.17
2019-04-29T09:47:44.075Z,50.70
2019-04-29T09:50:12.982Z,50.00
2019-04-29T09:52:41.476Z,50.93
2019-04-29T09:55:10.170Z,50.53
2019-04-29T09:57:38.580Z,50.07
2019-04-29T10:00:09.727Z,54.27
2019-04-29T10:02:39.771Z,51.60
2019-04-29T10:05:16.591Z,50.80
2019-04-29T10:07:45.075Z,53.27
2019-04-29T10:10:13.655Z,52.80
2019-04-29T10:12:42.092Z,52.50
2019-04-29T10:15:12.478Z,52.97
2019-04-29T10:17:45.814Z,52.10
2019-04-29T10:20:20.295Z,51.80
2019-04-29T10:22:50.188Z,50.80
2019-04-29T10:25:19.465Z,50.57
2019-04-29T10:27:47.905Z,50.13
2019-04-29T10:30:18.432Z,52.73
2019-04-29T10:32:46.931Z,52.13
2019-04-29T10:35:15.617Z,52.67
2019-04-29T10:37:44.038Z,51.10
2019-04-29T10:40:20.494Z,51.07
2019-04-29T10:42:50.564Z,54.30
2019-04-29T10:45:23.169Z,47.57
2019-04-29T10:47:59.138Z,49.50
2019-04-29T10:50:30.351Z,51.10
2019-04-29T10:52:59.060Z,51.47
2019-04-29T10:55:30.060Z,51.10
2019-04-29T10:57:57.750Z,49.00
2019-04-29T11:01:03.120Z,47.70
2019-04-29T11:03:31.552Z,50.70
2019-04-29T11:06:01.771Z,52.40
2019-04-29T11:08:33.819Z,49.07
2019-04-29T11:11:02.700Z,47.97
2019-04-29T11:13:31.335Z,49.47
2019-04-29T11:15:59.737Z,49.30
2019-04-29T11:18:28.167Z,53.90
2019-04-29T11:20:56.566Z,52.83
2019-04-29T11:23:32.440Z,48.43
2019-04-29T11:26:02.545Z,48.33
2019-04-29T11:28:32.689Z,50.63
2019-04-29T11:31:01.239Z,55.00
2019-04-29T11:33:31.371Z,45.27
2019-04-29T11:36:07.282Z,46.13
2019-04-29T11:38:38.296Z,49.57
2019-04-29T11:41:05.980Z,50.83
2019-04-29T11:43:34.776Z,44.77
2019-04-29T11:46:03.180Z,50.83
2019-04-29T11:48:31.606Z,48.97
2019-04-29T11:51:04.124Z,46.60
2019-04-29T11:53:32.621Z,49.43
2019-04-29T11:56:01.030Z,45.20
2019-04-29T11:58:47.235Z,49.50
2019-04-29T12:01:17.279Z,54.03
2019-04-29T12:03:51.381Z,47.57
2019-04-29T12:06:21.086Z,49.30
2019-04-29T12:08:53.085Z,45.77
2019-04-29T12:11:20.861Z,44.23
2019-04-29T12:13:53.866Z,47.10
2019-04-29T12:16:26.583Z,45.97
2019-04-29T12:19:11.711Z,44.87
2019-04-29T12:21:42.099Z,43.63
2019-04-29T12:24:10.805Z,45.57
2019-04-29T12:26:43.183Z,45.93
2019-04-29T12:29:09.332Z,46.30
2019-04-29T12:31:44.885Z,48.73
2019-04-29T12:34:26.864Z,49.33
2019-04-29T12:36:56.854Z,48.53
2019-04-29T12:39:43.476Z,46.97
2019-04-29T12:42:24.134Z,46.57
2019-04-29T12:44:56.628Z,46.23
2019-04-29T12:47:27.256Z,46.47
2019-04-29T12:49:55.779Z,45.27
2019-04-29T12:52:24.255Z,45.90
2019-04-29T12:54:52.683Z,46.90
2019-04-29T12:57:23.568Z,46.70
2019-04-29T12:59:54.350Z,44.47
2019-04-29T13:02:24.215Z,45.10
2019-04-29T13:04:54.833Z,49.70
2019-04-29T13:07:30.319Z,50.93
2019-04-29T13:10:06.989Z,45.37
2019-04-29T13:12:39.779Z,44.47
2019-04-29T13:15:20.533Z,43.60
2019-04-29T13:18:02.828Z,59.63
2019-04-29T13:20:20.798Z,45.93
2019-04-29T13:22:49.264Z,47.60
2019-04-29T13:25:19.696Z,47.53
2019-04-29T13:27:47.962Z,45.53
2019-04-29T13:30:16.551Z,46.87
2019-04-29T13:32:44.938Z,47.23
2019-04-29T13:35:13.777Z,50.27
2019-04-29T13:37:42.179Z,51.03
2019-04-29T13:40:12.229Z,48.23
2019-04-29T13:42:48.543Z,46.77
2019-04-29T13:45:13.973Z,48.40
2019-04-29T13:47:56.229Z,48.00
2019-04-29T13:50:38.707Z,48.33
2019-04-29T13:52:59.031Z,52.30
2019-04-29T13:55:47.352Z,51.80
2019-04-29T13:57:57.589Z,51.40
2019-04-29T14:00:27.702Z,50.53
2019-04-29T14:02:59.108Z,52.37
2019-04-29T14:05:32.530Z,53.20
2019-04-29T14:07:59.754Z,49.20
2019-04-29T14:10:28.160Z,46.93
2019-04-29T14:13:09.064Z,47.30
2019-04-29T14:15:29.687Z,51.10
2019-04-29T14:17:56.913Z,50.93
2019-04-29T14:20:25.318Z,48.40
2019-04-29T14:22:54.419Z,48.73
2019-04-29T14:25:22.827Z,48.80
2019-04-29T14:27:51.266Z,52.07
2019-04-29T14:30:21.275Z,50.83
2019-04-29T14:32:51.427Z,46.80
2019-04-29T14:35:36.096Z,49.00
2019-04-29T14:38:05.115Z,47.43
2019-04-29T14:40:33.702Z,45.50
2019-04-29T14:43:28.605Z,47.77
2019-04-29T14:45:54.911Z,47.00
2019-04-29T14:48:41.715Z,44.30
2019-04-29T14:51:01.531Z,46.87
2019-04-29T14:53:29.964Z,46.93
2019-04-29T14:55:58.368Z,46.50
2019-04-29T14:58:26.811Z,46.13
2019-04-29T15:00:56.921Z,47.67
2019-04-29T15:03:27.050Z,44.70
2019-04-29T15:05:55.554Z,48.40
2019-04-29T15:08:23.990Z,47.50
2019-04-29T15:10:53.823Z,48.00
2019-04-29T15:13:23.783Z,47.47
2019-04-29T15:16:04.878Z,46.50
2019-04-29T15:18:47.249Z,47.50
2019-04-29T15:21:06.374Z,50.00
2019-04-29T15:23:35.294Z,44.43
2019-04-29T15:26:03.696Z,49.90
2019-04-29T15:28:33.774Z,49.97
2019-04-29T15:31:02.247Z,46.17
2019-04-29T15:33:34.743Z,49.17
2019-04-29T15:36:01.664Z,52.00
2019-04-29T15:38:30.265Z,46.50
2019-04-29T15:40:58.693Z,47.93
2019-04-29T15:43:45.620Z,49.83
2019-04-29T15:45:57.245Z,51.87
2019-04-29T15:48:25.650Z,45.97
2019-04-29T15:50:54.090Z,48.67
2019-04-29T15:53:22.498Z,47.23
2019-04-29T15:55:59.545Z,42.20
2019-04-29T15:58:22.490Z,46.50
2019-04-29T16:00:51.220Z,44.90
2019-04-29T16:03:20.561Z,45.00
2019-04-29T16:06:10.991Z,45.17
2019-04-29T16:08:29.586Z,45.17
2019-04-29T16:11:15.991Z,45.17
2019-04-29T16:13:48.152Z,43.60
2019-04-29T16:16:14.549Z,47.13
2019-04-29T16:18:42.959Z,44.83
2019-04-29T16:21:11.398Z,46.33
2019-04-29T16:23:40.354Z,47.23
2019-04-29T16:26:08.821Z,44.70
2019-04-29T16:28:40.160Z,44.97
2019-04-29T16:31:12.049Z,46.03
2019-04-29T16:33:37.510Z,50.73
2019-04-29T16:36:06.366Z,44.90
2019-04-29T16:38:34.921Z,54.00
2019-04-29T16:41:04.996Z,44.40
2019-04-29T16:43:35.266Z,49.50
2019-04-29T16:46:05.380Z,45.10
2019-04-29T16:48:33.850Z,46.13
2019-04-29T16:51:06.670Z,46.63
2019-04-29T16:53:32.428Z,44.83
2019-04-29T16:56:00.834Z,44.27
2019-04-29T16:58:29.267Z,51.77
2019-04-29T17:00:57.673Z,45.13
2019-04-29T17:03:26.107Z,47.77
2019-04-29T17:05:54.510Z,47.67
2019-04-29T17:08:24.576Z,46.63
2019-04-29T17:11:11.910Z,44.80
2019-04-29T17:13:40.187Z,45.40
2019-04-29T17:16:10.228Z,47.27
2019-04-29T17:18:38.660Z,48.10
2019-04-29T17:21:07.565Z,46.03
2019-04-29T17:23:36.064Z,48.17
2019-04-29T17:26:04.516Z,45.50
2019-04-29T17:28:37.378Z,47.43
2019-04-29T17:31:12.448Z,46.40
2019-04-29T17:33:49.657Z,45.47
2019-04-29T17:36:12.403Z,45.27
2019-04-29T17:38:40.827Z,46.57
2019-04-29T17:41:09.231Z,50.60
2019-04-29T17:43:45.060Z,47.80
2019-04-29T17:46:33.101Z,46.40
2019-04-29T17:49:03.170Z,46.60
2019-04-29T17:51:31.748Z,50.67
2019-04-29T17:54:13.892Z,52.50
2019-04-29T17:56:45.049Z,48.07
2019-04-29T17:59:29.441Z,47.73
2019-04-29T18:02:20.774Z,48.43
2019-04-29T18:04:58.500Z,46.70
2019-04-29T18:07:28.553Z,48.50
2019-04-29T18:10:01.037Z,53.07
2019-04-29T18:12:29.456Z,48.70
2019-04-29T18:14:57.884Z,47.00
2019-04-29T18:17:31.136Z,47.20
2019-04-29T18:20:29.753Z,48.93
2019-04-29T18:22:52.449Z,49.53
2019-04-29T18:25:30.816Z,50.53
2019-04-29T18:28:00.049Z,46.27
2019-04-29T18:30:35.417Z,45.10
2019-04-29T18:32:57.419Z,48.20
2019-04-29T18:35:25.907Z,48.87
2019-04-29T18:37:55.730Z,52.70
2019-04-29T18:40:25.832Z,51.90
2019-04-29T18:42:55.422Z,50.03
2019-04-29T18:45:25.429Z,49.00
2019-04-29T18:47:54.031Z,51.77
2019-04-29T18:50:22.464Z,50.63
2019-04-29T18:52:50.873Z,49.57
2019-04-29T18:55:19.315Z,54.57
2019-04-29T18:57:47.723Z,50.43
2019-04-29T19:00:20.058Z,53.10
2019-04-29T19:02:52.440Z,51.53
2019-04-29T19:05:26.385Z,53.33
2019-04-29T19:08:00.083Z,52.30
2019-04-29T19:10:32.964Z,53.60
2019-04-29T19:12:59.792Z,51.00
2019-04-29T19:15:25.621Z,53.13
2019-04-29T19:18:01.334Z,55.33
2019-04-29T19:20:25.131Z,55.27
2019-04-29T19:23:05.376Z,55.07
2019-04-29T19:25:25.510Z,51.50
2019-04-29T19:27:55.600Z,55.13
2019-04-29T19:30:27.046Z,53.80
2019-04-29T19:33:00.237Z,51.30
2019-04-29T19:35:25.283Z,54.97
2019-04-29T19:37:53.715Z,50.70
2019-04-29T19:40:22.121Z,49.27
2019-04-29T19:42:50.548Z,55.10
2019-04-29T19:45:19.023Z,60.53
2019-04-29T19:47:52.958Z,54.87
2019-04-29T19:50:19.572Z,55.67
2019-04-29T19:52:47.748Z,52.70
2019-04-29T19:55:16.226Z,51.50
2019-04-29T19:57:50.243Z,59.20
2019-04-29T20:00:17.176Z,57.47
2019-04-29T20:02:46.503Z,53.10
2019-04-29T20:05:23.945Z,55.83
2019-04-29T20:07:50.998Z,55.03
2019-04-29T20:10:20.882Z,66.63
2019-04-29T20:12:53.004Z,55.27
2019-04-29T20:15:20.620Z,55.83
2019-04-29T20:18:07.389Z,55.93
2019-04-29T20:20:46.438Z,57.37
2019-04-29T20:23:20.010Z,56.23
2019-04-29T20:25:48.070Z,55.23
2019-04-29T20:28:18.379Z,51.67
2019-04-29T20:30:45.784Z,52.07
2019-04-29T20:33:16.104Z,55.80
2019-04-29T20:35:49.038Z,60.10
2019-04-29T20:38:15.833Z,54.47
2019-04-29T20:40:46.437Z,55.83
2019-04-29T20:43:16.074Z,58.40
2019-04-29T20:45:45.475Z,58.70
2019-04-29T20:48:16.013Z,56.20
2019-04-29T20:50:46.095Z,59.03
2019-04-29T20:53:16.266Z,56.30
2019-04-29T20:55:46.030Z,58.37
2019-04-29T20:58:15.633Z,58.10
2019-04-29T21:00:45.186Z,56.20
2019-04-29T21:03:13.875Z,55.07
2019-04-29T21:05:48.233Z,57.73
2019-04-29T21:08:16.404Z,56.83
2019-04-29T21:10:44.610Z,55.60
2019-04-29T21:13:30.847Z,57.83
2019-04-29T21:16:12.674Z,55.77
2019-04-29T21:18:47.425Z,53.43
2019-04-29T21:21:11.227Z,53.00
2019-04-29T21:23:39.627Z,54.43
2019-04-29T21:26:08.770Z,54.23
2019-04-29T21:28:41.159Z,54.23
2019-04-29T21:31:11.645Z,55.67
2019-04-29T21:33:37.876Z,57.40
2019-04-29T21:36:17.116Z,59.47
2019-04-29T21:38:48.601Z,58.70
2019-04-29T21:41:21.912Z,56.03
2019-04-29T21:43:53.630Z,60.20
2019-04-29T21:46:28.478Z,58.00
2019-04-29T21:48:52.190Z,53.13
2019-04-29T21:51:20.626Z,58.47
2019-04-29T21:53:49.038Z,64.43
2019-04-29T21:56:17.471Z,57.17
2019-04-29T21:58:45.879Z,57.33
2019-04-29T22:01:15.280Z,57.30
2019-04-29T22:03:43.875Z,57.17
2019-04-29T22:06:12.311Z,67.30
2019-04-29T22:08:40.715Z,58.00
2019-04-29T22:11:09.221Z,58.57
2019-04-29T22:13:39.198Z,55.83
2019-04-29T22:16:11.588Z,63.30
2019-04-29T22:18:38.081Z,57.00
2019-04-29T22:21:09.870Z,58.83
2019-04-29T22:23:36.914Z,57.23
2019-04-29T22:26:05.425Z,55.23
2019-04-29T22:28:35.082Z,57.63
2019-04-29T22:31:05.402Z,59.83
2019-04-29T22:33:34.915Z,59.77
2019-04-29T22:36:05.365Z,61.30
2019-04-29T22:38:35.848Z,54.77
2019-04-29T22:41:06.009Z,63.63
2019-04-29T22:43:40.236Z,56.50
2019-04-29T22:46:10.558Z,58.00
2019-04-29T22:48:40.600Z,58.27
2019-04-29T22:51:10.055Z,58.60
2019-04-29T22:53:40.052Z,54.93
2019-04-29T22:56:14.118Z,53.87
2019-04-29T22:58:43.933Z,55.90
2019-04-29T23:01:10.025Z,57.07
2019-04-29T23:03:38.845Z,55.70
2019-04-29T23:06:08.481Z,54.87
2019-04-29T23:08:38.242Z,61.80
2019-04-29T23:11:06.756Z,54.77
2019-04-29T23:13:35.466Z,62.30
2019-04-29T23:16:05.329Z,56.10
2019-04-29T23:18:42.188Z,63.87
2019-04-29T23:21:11.081Z,53.20
2019-04-29T23:23:45.407Z,56.40
2019-04-29T23:26:14.847Z,53.97
2019-04-29T23:28:45.742Z,51.03
2019-04-29T23:31:14.303Z,55.73
2019-04-29T23:33:42.738Z,52.23
2019-04-29T23:36:14.262Z,53.60
2019-04-29T23:38:42.858Z,54.43
2019-04-29T23:41:11.432Z,51.60
2019-04-29T23:43:39.943Z,58.40
2019-04-29T23:46:08.351Z,57.03
2019-04-29T23:48:39.436Z,61.03
2019-04-29T23:51:06.921Z,58.60
2019-04-29T23:53:35.358Z,57.50
2019-04-29T23:56:05.716Z,59.43
2019-04-29T23:58:47.748Z,72.53
